createdAt,value
2023-05-06T00:00:41.173Z,51.53
2023-05-06T00:11:02.664Z,51.81
2023-05-06T00:21:24.137Z,52.33
2023-05-06T00:31:46.437Z,53.02
2023-05-06T00:42:07.896Z,53.16
2023-05-06T00:52:29.179Z,54.18
2023-05-06T01:02:50.735Z,55.07
2023-05-06T01:13:37.567Z,54.93
2023-05-06T01:23:59.188Z,55.34
2023-05-06T01:34:39.270Z,55.63
2023-05-06T01:45:02.718Z,55.68
2023-05-06T01:55:24.630Z,56.12
2023-05-06T02:05:45.911Z,56.31
2023-05-06T02:16:09.073Z,57.11
2023-05-06T02:26:31.350Z,57.08
2023-05-06T02:36:52.858Z,57.29
2023-05-06T02:47:14.294Z,57.45
2023-05-06T02:57:35.701Z,57.92
2023-05-06T03:07:57.220Z,58.00
2023-05-06T03:18:18.414Z,58.04
2023-05-06T03:28:39.944Z,57.69
2023-05-06T03:39:01.620Z,58.05
2023-05-06T03:49:25.220Z,58.03
2023-05-06T03:59:46.890Z,58.36
2023-05-06T04:10:10.461Z,56.66
2023-05-06T04:20:33.167Z,56.09
2023-05-06T04:30:55.665Z,55.96
2023-05-06T04:41:24.023Z,55.72
2023-05-06T04:51:45.834Z,55.73
2023-05-06T05:02:08.409Z,55.79
2023-05-06T05:12:30.348Z,55.69
2023-05-06T05:22:52.193Z,56.19
2023-05-06T05:33:14.128Z,56.30
2023-05-06T05:43:36.929Z,57.12
2023-05-06T05:53:58.496Z,56.81
2023-05-06T06:04:21.670Z,57.06
2023-05-06T06:14:48.064Z,57.35
2023-05-06T06:25:12.970Z,57.62
2023-05-06T06:35:34.979Z,57.66
2023-05-06T06:45:56.580Z,58.47
2023-05-06T06:56:18.154Z,58.15
2023-05-06T07:06:39.192Z,58.41
2023-05-06T07:17:03.683Z,58.32
2023-05-06T07:27:25.617Z,60.38
2023-05-06T07:37:47.247Z,61.66
2023-05-06T07:48:08.644Z,60.05
2023-05-06T07:58:31.392Z,59.54
2023-05-06T08:08:53.082Z,59.04
2023-05-06T08:19:14.854Z,58.38
2023-05-06T08:29:35.815Z,58.33
2023-05-06T08:39:58.143Z,58.10
2023-05-06T08:50:21.452Z,58.56
2023-05-06T09:00:43.715Z,58.48
2023-05-06T09:11:23.292Z,58.50
2023-05-06T09:21:46.838Z,57.94
2023-05-06T09:32:09.220Z,58.02
2023-05-06T09:42:30.620Z,58.12
2023-05-06T09:52:52.047Z,58.18
2023-05-06T10:03:14.752Z,56.77
2023-05-06T10:13:37.417Z,56.58
2023-05-06T10:24:07.568Z,56.69
2023-05-06T10:34:32.968Z,56.44
2023-05-06T10:45:01.621Z,56.22
2023-05-06T10:55:33.754Z,55.47
2023-05-06T11:05:55.706Z,55.44
2023-05-06T11:16:49.575Z,54.97
2023-05-06T11:27:12.728Z,53.61
2023-05-06T11:37:34.122Z,54.91
2023-05-06T11:47:55.559Z,55.22
2023-05-06T11:58:19.130Z,55.01
2023-05-06T12:08:40.960Z,55.57
2023-05-06T12:19:03.005Z,55.88
2023-05-06T12:29:26.268Z,55.54
2023-05-06T12:39:47.592Z,55.81
2023-05-06T12:50:09.654Z,55.08
2023-05-06T13:00:31.267Z,54.84
2023-05-06T13:10:52.311Z,54.69
2023-05-06T13:21:14.215Z,55.10
2023-05-06T13:31:35.533Z,55.19
2023-05-06T13:41:56.953Z,54.99
2023-05-06T13:52:18.240Z,55.19
2023-05-06T14:02:39.765Z,55.25
2023-05-06T14:13:01.360Z,55.06
2023-05-06T14:23:22.732Z,55.00
2023-05-06T14:33:43.969Z,54.19
2023-05-06T14:44:05.690Z,56.29
2023-05-06T14:54:29.487Z,55.04
2023-05-06T15:04:50.962Z,55.47
2023-05-06T15:15:12.802Z,56.23
2023-05-06T15:25:36.225Z,56.81
2023-05-06T15:35:58.272Z,56.65
2023-05-06T15:46:20.003Z,55.01
2023-05-06T15:56:41.825Z,55.34
2023-05-06T16:07:03.840Z,55.88
2023-05-06T16:17:25.294Z,55.81
2023-05-06T16:27:47.151Z,55.66
2023-05-06T16:38:08.855Z,55.48
2023-05-06T16:48:30.126Z,55.70
2023-05-06T16:58:51.306Z,56.40
2023-05-06T17:09:12.463Z,55.98
2023-05-06T17:19:34.273Z,55.86
2023-05-06T17:29:55.353Z,55.57
2023-05-06T17:40:16.767Z,55.86
2023-05-06T17:50:37.911Z,55.82
2023-05-06T18:00:59.349Z,55.80
2023-05-06T18:11:20.329Z,55.96
2023-05-06T18:21:41.354Z,56.07
2023-05-06T18:32:02.996Z,55.79
2023-05-06T18:42:24.799Z,56.22
2023-05-06T18:52:45.871Z,55.92
2023-05-06T19:03:07.186Z,56.20
2023-05-06T19:13:29.071Z,56.31
2023-05-06T19:23:50.955Z,56.36
2023-05-06T19:34:12.687Z,56.23
2023-05-06T19:44:33.733Z,56.32
2023-05-06T19:54:54.998Z,56.37
2023-05-06T20:05:16.669Z,56.24
2023-05-06T20:15:37.875Z,56.07
2023-05-06T20:25:59.111Z,56.30
2023-05-06T20:36:21.228Z,56.06
2023-05-06T20:46:42.450Z,56.42
2023-05-06T20:57:03.772Z,55.94
2023-05-06T21:07:24.775Z,55.73
2023-05-06T21:17:47.645Z,55.68
2023-05-06T21:28:08.880Z,56.09
2023-05-06T21:38:30.045Z,55.93
2023-05-06T21:48:52.182Z,55.74
2023-05-06T21:59:13.762Z,55.96
2023-05-06T22:09:35.084Z,55.86
2023-05-06T22:19:56.526Z,55.97
2023-05-06T22:30:18.937Z,55.81
2023-05-06T22:40:40.062Z,55.83
2023-05-06T22:51:01.952Z,55.55
2023-05-06T23:01:22.987Z,55.15
2023-05-06T23:11:46.358Z,55.27
2023-05-06T23:22:07.646Z,55.68
2023-05-06T23:32:29.290Z,55.32
2023-05-06T23:42:50.241Z,55.31
2023-05-06T23:53:11.783Z,55.30
